EZY39ND EGCC-EHAM
Flight info
| Callsign | EZY39ND |
|---|---|
| Flight time | 0h 48m |
| Altitude | 33000 |
| Route | DESIG L603 LAMSO |
| Aircraft | A320/M-SDE3FGHIRWY/LB1 |
Departure
| Time | 2026-05-06 09:00 |
|---|---|
| Airport | Manchester Airport (EGCC) |
Arrival
| Time | 2026-05-06 09:49 |
|---|---|
| Airport | Amsterdam Airport Schiphol (EHAM) |
| Time | Latitude | Longitude | Altitude | Speed | Heading |
|---|---|---|---|---|---|
| 2026-05-06 08:34 | 53.35935 | -2.27407 | 255 ft | 0 kts | 276° |
| 2026-05-06 08:49 | 53.35935 | -2.27365 | 255 ft | 4 kts | 256° |
| 2026-05-06 08:49 | 53.35946 | -2.27329 | 255 ft | 4 kts | 213° |
| 2026-05-06 08:50 | 53.35961 | -2.27319 | 255 ft | 3 kts | 179° |
| 2026-05-06 08:50 | 53.35943 | -2.27319 | 255 ft | 4 kts | 179° |
| 2026-05-06 08:50 | 53.35915 | -2.27318 | 255 ft | 4 kts | 179° |
| 2026-05-06 08:50 | 53.35888 | -2.27317 | 255 ft | 4 kts | 179° |
| 2026-05-06 08:51 | 53.35880 | -2.27317 | 255 ft | 0 kts | 179° |
| 2026-05-06 08:53 | 53.35872 | -2.27317 | 255 ft | 4 kts | 179° |
| 2026-05-06 08:54 | 53.35825 | -2.27315 | 255 ft | 7 kts | 178° |
| 2026-05-06 08:54 | 53.35783 | -2.27334 | 255 ft | 8 kts | 218° |
| 2026-05-06 08:54 | 53.35732 | -2.27438 | 255 ft | 12 kts | 231° |
| 2026-05-06 08:54 | 53.35672 | -2.27563 | 247 ft | 16 kts | 231° |
| 2026-05-06 08:55 | 53.35584 | -2.27713 | 241 ft | 20 kts | 224° |
| 2026-05-06 08:55 | 53.35472 | -2.27895 | 239 ft | 23 kts | 224° |
| 2026-05-06 08:55 | 53.35361 | -2.28074 | 236 ft | 18 kts | 223° |
| 2026-05-06 08:55 | 53.35265 | -2.28234 | 233 ft | 22 kts | 231° |
| 2026-05-06 08:56 | 53.35164 | -2.28440 | 229 ft | 25 kts | 231° |
| 2026-05-06 08:56 | 53.35067 | -2.28642 | 230 ft | 17 kts | 231° |
| 2026-05-06 08:56 | 53.34982 | -2.28799 | 227 ft | 19 kts | 227° |
| 2026-05-06 08:56 | 53.34881 | -2.28975 | 222 ft | 22 kts | 226° |
| 2026-05-06 08:57 | 53.34769 | -2.29188 | 215 ft | 25 kts | 231° |
| 2026-05-06 08:57 | 53.34699 | -2.29313 | 213 ft | 13 kts | 214° |
| 2026-05-06 08:57 | 53.34687 | -2.29324 | 211 ft | 0 kts | 205° |
| 2026-05-06 08:58 | 53.34671 | -2.29334 | 211 ft | 6 kts | 198° |
| 2026-05-06 08:59 | 53.34612 | -2.29342 | 213 ft | 8 kts | 173° |
| 2026-05-06 08:59 | 53.34562 | -2.29313 | 213 ft | 10 kts | 148° |
| 2026-05-06 08:59 | 53.34557 | -2.29187 | 214 ft | 12 kts | 56° |
| 2026-05-06 08:59 | 53.34595 | -2.29107 | 220 ft | 17 kts | 52° |
| 2026-05-06 09:00 | 53.34833 | -2.28617 | 230 ft | 89 kts | 51° |
| 2026-05-06 09:00 | 53.35361 | -2.27522 | 245 ft | 146 kts | 51° |
| 2026-05-06 09:00 | 53.35836 | -2.26512 | 481 ft | 160 kts | 51° |
| 2026-05-06 09:00 | 53.36797 | -2.24609 | 1464 ft | 162 kts | 50° |
| 2026-05-06 09:01 | 53.37549 | -2.23102 | 1849 ft | 182 kts | 52° |
| 2026-05-06 09:01 | 53.38389 | -2.21339 | 2277 ft | 198 kts | 51° |
| 2026-05-06 09:01 | 53.39274 | -2.19448 | 2759 ft | 217 kts | 51° |
| 2026-05-06 09:01 | 53.40245 | -2.17346 | 3268 ft | 238 kts | 51° |
| 2026-05-06 09:02 | 53.41272 | -2.15130 | 4136 ft | 246 kts | 51° |
| 2026-05-06 09:02 | 53.42343 | -2.12831 | 5052 ft | 251 kts | 51° |
| 2026-05-06 09:02 | 53.43449 | -2.10466 | 5972 ft | 256 kts | 51° |
| 2026-05-06 09:02 | 53.44561 | -2.08093 | 6833 ft | 261 kts | 51° |
| 2026-05-06 09:03 | 53.45710 | -2.05642 | 7719 ft | 267 kts | 51° |
| 2026-05-06 09:03 | 53.46882 | -2.03133 | 8577 ft | 271 kts | 51° |
| 2026-05-06 09:03 | 53.48056 | -2.00618 | 9419 ft | 276 kts | 51° |
| 2026-05-06 09:03 | 53.49254 | -1.98066 | 10224 ft | 283 kts | 50° |
| 2026-05-06 09:04 | 53.50528 | -1.95377 | 10571 ft | 306 kts | 50° |
| 2026-05-06 09:04 | 53.52113 | -1.92862 | 10986 ft | 321 kts | 28° |
| 2026-05-06 09:04 | 53.54263 | -1.91867 | 11643 ft | 326 kts | 0° |
| 2026-05-06 09:04 | 53.56546 | -1.91854 | 12375 ft | 331 kts | 4° |
| 2026-05-06 09:05 | 53.58738 | -1.90602 | 13071 ft | 340 kts | 32° |
| 2026-05-06 09:05 | 53.60381 | -1.87718 | 13765 ft | 349 kts | 59° |
| 2026-05-06 09:05 | 53.61093 | -1.83810 | 14433 ft | 356 kts | 86° |
| 2026-05-06 09:05 | 53.60696 | -1.79694 | 15072 ft | 361 kts | 113° |
| 2026-05-06 09:06 | 53.59364 | -1.76103 | 15730 ft | 364 kts | 127° |
| 2026-05-06 09:06 | 53.57863 | -1.72648 | 16394 ft | 367 kts | 127° |
| 2026-05-06 09:06 | 53.56325 | -1.69115 | 17050 ft | 371 kts | 127° |
| 2026-05-06 09:06 | 53.54792 | -1.65603 | 17669 ft | 375 kts | 127° |
| 2026-05-06 09:07 | 53.53239 | -1.62050 | 18266 ft | 379 kts | 127° |
| 2026-05-06 09:07 | 53.52178 | -1.59629 | 18684 ft | 381 kts | 127° |
| 2026-05-06 09:07 | 53.50598 | -1.56027 | 19289 ft | 385 kts | 127° |
| 2026-05-06 09:07 | 53.49004 | -1.52394 | 19861 ft | 388 kts | 128° |
| 2026-05-06 09:08 | 53.46849 | -1.47487 | 20620 ft | 393 kts | 128° |
| 2026-05-06 09:08 | 53.45772 | -1.45036 | 20985 ft | 395 kts | 128° |
| 2026-05-06 09:08 | 53.44287 | -1.41149 | 21501 ft | 399 kts | 115° |
| 2026-05-06 09:08 | 53.43461 | -1.36682 | 21997 ft | 404 kts | 104° |
| 2026-05-06 09:09 | 53.42750 | -1.32117 | 22484 ft | 406 kts | 107° |
| 2026-05-06 09:09 | 53.41922 | -1.27571 | 22973 ft | 409 kts | 109° |
| 2026-05-06 09:09 | 53.41034 | -1.23022 | 23454 ft | 412 kts | 109° |
| 2026-05-06 09:09 | 53.40132 | -1.18445 | 23910 ft | 415 kts | 109° |
| 2026-05-06 09:10 | 53.39238 | -1.13827 | 24363 ft | 418 kts | 109° |
| 2026-05-06 09:10 | 53.38358 | -1.09172 | 24804 ft | 421 kts | 108° |
| 2026-05-06 09:10 | 53.37491 | -1.04485 | 25246 ft | 423 kts | 108° |
| 2026-05-06 09:10 | 53.36625 | -0.99754 | 25665 ft | 426 kts | 108° |
| 2026-05-06 09:11 | 53.35759 | -0.95007 | 26078 ft | 428 kts | 108° |
| 2026-05-06 09:11 | 53.34887 | -0.90228 | 26480 ft | 430 kts | 108° |
| 2026-05-06 09:11 | 53.34008 | -0.85431 | 26871 ft | 433 kts | 108° |
| 2026-05-06 09:11 | 53.33118 | -0.80606 | 27254 ft | 435 kts | 108° |
| 2026-05-06 09:12 | 53.32216 | -0.75763 | 27613 ft | 438 kts | 109° |
| 2026-05-06 09:12 | 53.31301 | -0.70889 | 27984 ft | 440 kts | 109° |
| 2026-05-06 09:12 | 53.30371 | -0.65939 | 28365 ft | 442 kts | 108° |
| 2026-05-06 09:12 | 53.29448 | -0.61025 | 28724 ft | 444 kts | 109° |
| 2026-05-06 09:13 | 53.28531 | -0.56148 | 29015 ft | 448 kts | 109° |
| 2026-05-06 09:13 | 53.27573 | -0.51079 | 29143 ft | 455 kts | 109° |
| 2026-05-06 09:13 | 53.26608 | -0.45999 | 29272 ft | 462 kts | 109° |
| 2026-05-06 09:13 | 53.25636 | -0.40890 | 29653 ft | 461 kts | 109° |
| 2026-05-06 09:14 | 53.24668 | -0.35803 | 30077 ft | 459 kts | 109° |
| 2026-05-06 09:14 | 53.23703 | -0.30719 | 30488 ft | 458 kts | 109° |
| 2026-05-06 09:14 | 53.22742 | -0.25655 | 30889 ft | 458 kts | 109° |
| 2026-05-06 09:14 | 53.21781 | -0.20598 | 31279 ft | 456 kts | 109° |
| 2026-05-06 09:15 | 53.20818 | -0.15562 | 31663 ft | 455 kts | 109° |
| 2026-05-06 09:15 | 53.19846 | -0.10540 | 32047 ft | 454 kts | 109° |
| 2026-05-06 09:15 | 53.18870 | -0.05535 | 32420 ft | 454 kts | 109° |
| 2026-05-06 09:15 | 53.17896 | -0.00533 | 32768 ft | 454 kts | 109° |
| 2026-05-06 09:16 | 53.16919 | 0.04495 | 32952 ft | 457 kts | 110° |
| 2026-05-06 09:16 | 53.14987 | 0.14428 | 33028 ft | 441 kts | 110° |
| 2026-05-06 09:17 | 53.13100 | 0.24071 | 33009 ft | 436 kts | 110° |
| 2026-05-06 09:17 | 53.11207 | 0.33658 | 33009 ft | 435 kts | 110° |
| 2026-05-06 09:18 | 53.09315 | 0.43216 | 33008 ft | 435 kts | 110° |
| 2026-05-06 09:18 | 53.07418 | 0.52761 | 33007 ft | 434 kts | 110° |
| 2026-05-06 09:19 | 53.05511 | 0.62291 | 33003 ft | 435 kts | 110° |
| 2026-05-06 09:19 | 53.03595 | 0.71811 | 33004 ft | 434 kts | 110° |
| 2026-05-06 09:20 | 53.01679 | 0.81312 | 33001 ft | 433 kts | 110° |
| 2026-05-06 09:20 | 52.99755 | 0.90785 | 32998 ft | 433 kts | 110° |
| 2026-05-06 09:21 | 52.97862 | 1.00340 | 32985 ft | 433 kts | 105° |
| 2026-05-06 09:21 | 52.96700 | 1.10154 | 32993 ft | 434 kts | 102° |
| 2026-05-06 09:22 | 52.95575 | 1.19972 | 32990 ft | 433 kts | 102° |
| 2026-05-06 09:22 | 52.94438 | 1.29763 | 32976 ft | 433 kts | 102° |
| 2026-05-06 09:23 | 52.93288 | 1.39553 | 32984 ft | 432 kts | 102° |
| 2026-05-06 09:23 | 52.92127 | 1.49322 | 32974 ft | 432 kts | 102° |
| 2026-05-06 09:24 | 52.90960 | 1.59147 | 32979 ft | 431 kts | 102° |
| 2026-05-06 09:24 | 52.89798 | 1.68889 | 32967 ft | 431 kts | 102° |
| 2026-05-06 09:25 | 52.88626 | 1.78608 | 32692 ft | 430 kts | 103° |
| 2026-05-06 09:25 | 52.88031 | 1.83480 | 31948 ft | 432 kts | 103° |
| 2026-05-06 09:25 | 52.87436 | 1.88334 | 31441 ft | 428 kts | 103° |
| 2026-05-06 09:25 | 52.86845 | 1.93149 | 30895 ft | 425 kts | 103° |
| 2026-05-06 09:26 | 52.86250 | 1.97983 | 30385 ft | 421 kts | 104° |
| 2026-05-06 09:26 | 52.85666 | 2.02710 | 29860 ft | 418 kts | 104° |
| 2026-05-06 09:26 | 52.85084 | 2.07406 | 29361 ft | 414 kts | 104° |
| 2026-05-06 09:26 | 52.84507 | 2.12047 | 28862 ft | 410 kts | 104° |
| 2026-05-06 09:27 | 52.83936 | 2.16650 | 28385 ft | 407 kts | 104° |
| 2026-05-06 09:27 | 52.83369 | 2.21203 | 27922 ft | 402 kts | 104° |
| 2026-05-06 09:27 | 52.82804 | 2.25709 | 27453 ft | 397 kts | 104° |
| 2026-05-06 09:27 | 52.82245 | 2.30153 | 27007 ft | 393 kts | 104° |
| 2026-05-06 09:28 | 52.81688 | 2.34562 | 26551 ft | 390 kts | 104° |
| 2026-05-06 09:28 | 52.81135 | 2.38921 | 26110 ft | 386 kts | 104° |
| 2026-05-06 09:28 | 52.80585 | 2.43234 | 25658 ft | 382 kts | 104° |
| 2026-05-06 09:28 | 52.80038 | 2.47513 | 25199 ft | 379 kts | 104° |
| 2026-05-06 09:29 | 52.79497 | 2.51758 | 24795 ft | 375 kts | 104° |
| 2026-05-06 09:29 | 52.78949 | 2.56036 | 24690 ft | 391 kts | 104° |
| 2026-05-06 09:29 | 52.78365 | 2.60562 | 24512 ft | 413 kts | 104° |
| 2026-05-06 09:29 | 52.77741 | 2.65384 | 24308 ft | 434 kts | 103° |
| 2026-05-06 09:30 | 52.77095 | 2.70351 | 24107 ft | 451 kts | 103° |
| 2026-05-06 09:30 | 52.76422 | 2.75506 | 23898 ft | 466 kts | 103° |
| 2026-05-06 09:30 | 52.75733 | 2.80776 | 23684 ft | 472 kts | 103° |
| 2026-05-06 09:30 | 52.75039 | 2.86091 | 23471 ft | 474 kts | 103° |
| 2026-05-06 09:31 | 52.74360 | 2.91297 | 23164 ft | 449 kts | 103° |
| 2026-05-06 09:31 | 52.73721 | 2.96174 | 22835 ft | 421 kts | 104° |
| 2026-05-06 09:31 | 52.72832 | 3.00635 | 22155 ft | 404 kts | 116° |
| 2026-05-06 09:31 | 52.71466 | 3.04665 | 21737 ft | 402 kts | 122° |
| 2026-05-06 09:32 | 52.70051 | 3.08630 | 21484 ft | 401 kts | 122° |
| 2026-05-06 09:32 | 52.68651 | 3.12606 | 21238 ft | 401 kts | 122° |
| 2026-05-06 09:32 | 52.67239 | 3.16642 | 20984 ft | 401 kts | 121° |
| 2026-05-06 09:32 | 52.65864 | 3.20579 | 20755 ft | 402 kts | 121° |
| 2026-05-06 09:33 | 52.64449 | 3.24621 | 20417 ft | 401 kts | 121° |
| 2026-05-06 09:33 | 52.63077 | 3.28525 | 20052 ft | 384 kts | 122° |
| 2026-05-06 09:33 | 52.61744 | 3.32299 | 19615 ft | 379 kts | 122° |
| 2026-05-06 09:33 | 52.60421 | 3.36031 | 19285 ft | 376 kts | 122° |
| 2026-05-06 09:34 | 52.59141 | 3.39769 | 18919 ft | 374 kts | 117° |
| 2026-05-06 09:34 | 52.58280 | 3.43790 | 18540 ft | 374 kts | 104° |
| 2026-05-06 09:34 | 52.57824 | 3.47990 | 18180 ft | 373 kts | 101° |
| 2026-05-06 09:34 | 52.57386 | 3.52177 | 17815 ft | 371 kts | 101° |
| 2026-05-06 09:35 | 52.56944 | 3.56334 | 17452 ft | 368 kts | 101° |
| 2026-05-06 09:35 | 52.56503 | 3.60473 | 17089 ft | 366 kts | 101° |
| 2026-05-06 09:35 | 52.56060 | 3.64583 | 16734 ft | 364 kts | 101° |
| 2026-05-06 09:35 | 52.55616 | 3.68664 | 16378 ft | 362 kts | 101° |
| 2026-05-06 09:36 | 52.55175 | 3.72715 | 16019 ft | 360 kts | 101° |
| 2026-05-06 09:36 | 52.54734 | 3.76756 | 15664 ft | 358 kts | 101° |
| 2026-05-06 09:36 | 52.54296 | 3.80768 | 15322 ft | 356 kts | 101° |
| 2026-05-06 09:36 | 52.53862 | 3.84752 | 14964 ft | 353 kts | 101° |
| 2026-05-06 09:37 | 52.53430 | 3.88717 | 14616 ft | 352 kts | 100° |
| 2026-05-06 09:37 | 52.52998 | 3.92659 | 14274 ft | 350 kts | 100° |
| 2026-05-06 09:37 | 52.52705 | 3.95306 | 14041 ft | 349 kts | 101° |
| 2026-05-06 09:37 | 52.52000 | 3.99056 | 13613 ft | 348 kts | 111° |
| 2026-05-06 09:38 | 52.51096 | 4.02791 | 13051 ft | 348 kts | 111° |
| 2026-05-06 09:38 | 52.50171 | 4.06572 | 12547 ft | 347 kts | 111° |
| 2026-05-06 09:38 | 52.49301 | 4.10116 | 12130 ft | 343 kts | 111° |
| 2026-05-06 09:38 | 52.48408 | 4.13751 | 11684 ft | 340 kts | 111° |
| 2026-05-06 09:39 | 52.47541 | 4.17276 | 11337 ft | 324 kts | 111° |
| 2026-05-06 09:39 | 52.46729 | 4.20579 | 11139 ft | 303 kts | 111° |
| 2026-05-06 09:39 | 52.45951 | 4.23730 | 10633 ft | 294 kts | 110° |
| 2026-05-06 09:39 | 52.45190 | 4.26813 | 10049 ft | 290 kts | 110° |
| 2026-05-06 09:40 | 52.44445 | 4.29826 | 9451 ft | 286 kts | 110° |
| 2026-05-06 09:40 | 52.43702 | 4.32826 | 8850 ft | 282 kts | 111° |
| 2026-05-06 09:40 | 52.41062 | 4.37451 | 7889 ft | 289 kts | 153° |
| 2026-05-06 09:41 | 52.39105 | 4.38299 | 7420 ft | 293 kts | 175° |
| 2026-05-06 09:41 | 52.37071 | 4.38125 | 7183 ft | 285 kts | 184° |
| 2026-05-06 09:41 | 52.35120 | 4.37872 | 6941 ft | 278 kts | 182° |
| 2026-05-06 09:41 | 52.33197 | 4.37639 | 6596 ft | 276 kts | 182° |
| 2026-05-06 09:42 | 52.31287 | 4.37407 | 6214 ft | 275 kts | 183° |
| 2026-05-06 09:42 | 52.29395 | 4.37174 | 5665 ft | 271 kts | 182° |
| 2026-05-06 09:42 | 52.27513 | 4.36938 | 5138 ft | 271 kts | 182° |
| 2026-05-06 09:42 | 52.25686 | 4.37004 | 4979 ft | 256 kts | 162° |
| 2026-05-06 09:43 | 52.24171 | 4.38290 | 4816 ft | 241 kts | 137° |
| 2026-05-06 09:43 | 52.22919 | 4.40068 | 4509 ft | 237 kts | 133° |
| 2026-05-06 09:43 | 52.21717 | 4.41888 | 4175 ft | 236 kts | 133° |
| 2026-05-06 09:43 | 52.20483 | 4.43778 | 3839 ft | 235 kts | 131° |
| 2026-05-06 09:44 | 52.19629 | 4.45857 | 3573 ft | 224 kts | 104° |
| 2026-05-06 09:44 | 52.19458 | 4.48257 | 3453 ft | 206 kts | 79° |
| 2026-05-06 09:44 | 52.19891 | 4.50395 | 3258 ft | 196 kts | 57° |
| 2026-05-06 09:44 | 52.20613 | 4.52260 | 3025 ft | 194 kts | 55° |
| 2026-05-06 09:45 | 52.21330 | 4.54100 | 2759 ft | 190 kts | 55° |
| 2026-05-06 09:45 | 52.22021 | 4.55879 | 2534 ft | 179 kts | 56° |
| 2026-05-06 09:45 | 52.22648 | 4.57502 | 2314 ft | 162 kts | 56° |
| 2026-05-06 09:45 | 52.23235 | 4.59018 | 2103 ft | 156 kts | 56° |
| 2026-05-06 09:46 | 52.23812 | 4.60509 | 1881 ft | 150 kts | 56° |
| 2026-05-06 09:46 | 52.24355 | 4.61912 | 1682 ft | 143 kts | 56° |
| 2026-05-06 09:46 | 52.24925 | 4.63387 | 1471 ft | 137 kts | 56° |
| 2026-05-06 09:46 | 52.25383 | 4.64581 | 1310 ft | 136 kts | 56° |
| 2026-05-06 09:47 | 52.25895 | 4.65902 | 1131 ft | 136 kts | 56° |
| 2026-05-06 09:47 | 52.26387 | 4.67176 | 953 ft | 135 kts | 56° |
| 2026-05-06 09:47 | 52.26892 | 4.68488 | 766 ft | 135 kts | 56° |
| 2026-05-06 09:47 | 52.27397 | 4.69794 | 565 ft | 135 kts | 57° |
| 2026-05-06 09:48 | 52.27911 | 4.71134 | 385 ft | 134 kts | 54° |
| 2026-05-06 09:48 | 52.28417 | 4.72423 | 214 ft | 136 kts | 57° |
| 2026-05-06 09:48 | 52.28853 | 4.73568 | 63 ft | 135 kts | 57° |
| 2026-05-06 09:48 | 52.29379 | 4.74941 | 0 ft | 120 kts | 58° |
| 2026-05-06 09:49 | 52.29742 | 4.75881 | -2 ft | 67 kts | 58° |
| 2026-05-06 09:49 | 52.29897 | 4.76285 | -4 ft | 18 kts | 59° |
| 2026-05-06 09:49 | 52.29928 | 4.76368 | -4 ft | 13 kts | 58° |
| 2026-05-06 09:49 | 52.29995 | 4.76475 | -2 ft | 14 kts | 39° |
| 2026-05-06 09:50 | 52.30073 | 4.76579 | -2 ft | 15 kts | 30° |
| 2026-05-06 09:50 | 52.30166 | 4.76657 | -1 ft | 14 kts | 27° |
| 2026-05-06 09:50 | 52.30209 | 4.76693 | -1 ft | 0 kts | 27° |
| 2026-05-06 09:51 | 52.30238 | 4.76718 | -1 ft | 9 kts | 27° |
| 2026-05-06 09:51 | 52.30288 | 4.76762 | -1 ft | 9 kts | 47° |
| 2026-05-06 09:51 | 52.30322 | 4.76847 | -1 ft | 9 kts | 58° |
| 2026-05-06 09:51 | 52.30355 | 4.76932 | -1 ft | 9 kts | 57° |
| 2026-05-06 09:52 | 52.30390 | 4.77025 | -1 ft | 10 kts | 58° |
| 2026-05-06 09:52 | 52.30426 | 4.77119 | -1 ft | 10 kts | 58° |
| 2026-05-06 09:52 | 52.30466 | 4.77224 | -1 ft | 12 kts | 58° |
| 2026-05-06 09:52 | 52.30514 | 4.77349 | -1 ft | 14 kts | 58° |
| 2026-05-06 09:53 | 52.30568 | 4.77490 | -1 ft | 14 kts | 57° |
| 2026-05-06 09:53 | 52.30645 | 4.77586 | -1 ft | 15 kts | 10° |
| 2026-05-06 09:53 | 52.30755 | 4.77597 | -1 ft | 15 kts | 4° |
| 2026-05-06 09:53 | 52.30869 | 4.77608 | -1 ft | 18 kts | 3° |
| 2026-05-06 09:54 | 52.30982 | 4.77618 | -1 ft | 16 kts | 3° |
| 2026-05-06 09:54 | 52.31099 | 4.77628 | -1 ft | 18 kts | 3° |
| 2026-05-06 09:54 | 52.31189 | 4.77637 | -1 ft | 14 kts | 3° |
| 2026-05-06 09:54 | 52.31292 | 4.77646 | -1 ft | 16 kts | 3° |
| 2026-05-06 09:55 | 52.31404 | 4.77655 | -1 ft | 16 kts | 358° |
| 2026-05-06 09:55 | 52.31492 | 4.77588 | -1 ft | 14 kts | 317° |
| 2026-05-06 09:55 | 52.31561 | 4.77468 | -1 ft | 15 kts | 301° |
| 2026-05-06 09:55 | 52.31576 | 4.77316 | -1 ft | 13 kts | 267° |
| 2026-05-06 09:56 | 52.31571 | 4.77176 | -1 ft | 12 kts | 266° |
| 2026-05-06 09:56 | 52.31567 | 4.77049 | -1 ft | 11 kts | 266° |
| 2026-05-06 09:56 | 52.31563 | 4.76935 | -1 ft | 9 kts | 266° |
| 2026-05-06 09:56 | 52.31559 | 4.76834 | -1 ft | 8 kts | 267° |
| 2026-05-06 09:57 | 52.31556 | 4.76742 | -1 ft | 8 kts | 266° |
| 2026-05-06 09:57 | 52.31553 | 4.76661 | -1 ft | 7 kts | 267° |
| 2026-05-06 09:57 | 52.31549 | 4.76547 | -1 ft | 11 kts | 266° |
| 2026-05-06 09:57 | 52.31545 | 4.76434 | -1 ft | 9 kts | 266° |
| 2026-05-06 09:58 | 52.31541 | 4.76326 | -1 ft | 12 kts | 267° |
| 2026-05-06 09:58 | 52.31538 | 4.76237 | -1 ft | 11 kts | 266° |
| 2026-05-06 09:58 | 52.31533 | 4.76078 | -1 ft | 12 kts | 267° |
| 2026-05-06 09:58 | 52.31529 | 4.75952 | -1 ft | 11 kts | 266° |
| 2026-05-06 09:59 | 52.31524 | 4.75837 | -1 ft | 10 kts | 266° |
| 2026-05-06 09:59 | 52.31520 | 4.75714 | -1 ft | 11 kts | 267° |
| 2026-05-06 09:59 | 52.31517 | 4.75599 | -1 ft | 10 kts | 267° |
| 2026-05-06 09:59 | 52.31511 | 4.75497 | -1 ft | 8 kts | 251° |
| 2026-05-06 10:00 | 52.31461 | 4.75468 | -1 ft | 9 kts | 178° |
| 2026-05-06 10:00 | 52.31375 | 4.75475 | -1 ft | 13 kts | 176° |
| 2026-05-06 10:00 | 52.31287 | 4.75484 | -1 ft | 12 kts | 177° |
| 2026-05-06 10:00 | 52.31234 | 4.75489 | -1 ft | 11 kts | 176° |
| 2026-05-06 10:01 | 52.31160 | 4.75496 | -1 ft | 10 kts | 176° |
| 2026-05-06 10:01 | 52.31099 | 4.75483 | -1 ft | 7 kts | 199° |
| 2026-05-06 10:01 | 52.31059 | 4.75505 | -1 ft | 6 kts | 148° |
| 2026-05-06 10:01 | 52.31048 | 4.75516 | -1 ft | 2 kts | 148° |
| 2026-05-06 10:02 | 52.31045 | 4.75519 | -1 ft | 0 kts | 148° |
| 2026-05-06 10:04 | 52.31045 | 4.75518 | -1 ft | 0 kts | 147° |